Time;durP1;ratioP1;P1;durP2;ratioP2;P2;SDS_P1;SDS_P2;PMS_P1;PMS_P2;Temp;Humidity;BMP_temperature;BMP_pressure;BME280_temperature;BME280_humidity;BME280_pressure;Samples;Min_cycle;Max_cycle;Signal;HPM_P1;HPM_P2
2022/03/08 00:01:29;;;;;;;5.50;2.58;;;0.40;84.10;;;;;;5050031;28;20032;-44
2022/03/08 00:03:55;;;;;;;4.65;2.60;;;0.40;84.10;;;;;;5032836;28;20039;-44
2022/03/08 00:06:22;;;;;;;4.90;2.30;;;0.40;84.20;;;;;;5049912;28;20057;-46
2022/03/08 00:08:47;;;;;;;4.97;2.90;;;0.40;84.30;;;;;;5032486;28;20787;-44
2022/03/08 00:11:16;;;;;;;4.75;3.30;;;0.40;84.40;;;;;;5050378;28;20100;-46
2022/03/08 00:13:43;;;;;;;5.40;2.65;;;0.40;84.30;;;;;;5049880;28;20033;-46
2022/03/08 00:16:12;;;;;;;4.43;2.88;;;0.40;84.30;;;;;;5032886;28;20033;-44
2022/03/08 00:18:39;;;;;;;5.38;2.95;;;0.40;84.10;;;;;;5032829;28;20037;-45
2022/03/08 00:21:06;;;;;;;4.47;2.83;;;0.30;84.00;;;;;;5049576;28;20053;-44
2022/03/08 00:23:32;;;;;;;4.10;2.45;;;0.30;84.20;;;;;;5032351;28;20033;-44
2022/03/08 00:26:01;;;;;;;5.57;2.88;;;0.30;84.20;;;;;;5032334;28;20036;-45
2022/03/08 00:28:28;;;;;;;4.13;2.85;;;0.20;84.20;;;;;;5049905;28;20086;-47
2022/03/08 00:30:56;;;;;;;5.70;2.55;;;0.20;84.20;;;;;;5031883;28;20033;-43
2022/03/08 00:33:27;;;;;;;4.25;2.53;;;0.20;84.20;;;;;;5050008;28;20025;-45
2022/03/08 00:35:54;;;;;;;4.25;2.60;;;0.20;84.20;;;;;;5031625;28;20446;-47
2022/03/08 00:38:22;;;;;;;3.22;2.00;;;0.10;84.10;;;;;;5049671;28;20086;-45
2022/03/08 00:40:49;;;;;;;5.63;2.72;;;0.10;84.10;;;;;;5031735;28;20037;-44
2022/03/08 00:43:17;;;;;;;5.10;3.40;;;0.10;84.30;;;;;;5020824;28;20038;-44
2022/03/08 00:45:47;;;;;;;3.97;2.55;;;0.10;84.30;;;;;;5012583;28;20029;-45
2022/03/08 00:48:13;;;;;;;5.35;2.80;;;0.00;84.30;;;;;;5029798;28;20101;-45
2022/03/08 00:50:40;;;;;;;6.00;2.83;;;0.00;84.30;;;;;;5027698;28;20074;-43
2022/03/08 00:53:08;;;;;;;4.53;3.05;;;0.00;84.30;;;;;;5049592;28;20438;-49
2022/03/08 00:55:36;;;;;;;5.50;3.10;;;0.00;84.20;;;;;;5049513;28;20025;-43
2022/03/08 00:58:04;;;;;;;4.68;2.85;;;0.00;84.30;;;;;;5049303;28;20041;-46
2022/03/08 01:00:32;;;;;;;6.30;3.90;;;0.00;84.20;;;;;;5049266;28;20314;-44
2022/03/08 01:03:01;;;;;;;8.23;3.45;;;0.00;84.30;;;;;;5031284;28;20103;-46
2022/03/08 01:05:30;;;;;;;7.13;3.22;;;0.00;84.40;;;;;;5032133;28;20063;-43
2022/03/08 01:08:08;;;;;;;4.75;2.95;;;0.00;84.40;;;;;;5048999;28;20099;-45
2022/03/08 01:10:36;;;;;;;5.43;3.30;;;0.00;84.30;;;;;;5050489;28;20370;-45
2022/03/08 01:13:04;;;;;;;7.20;3.33;;;0.00;84.40;;;;;;5052161;28;20025;-43
2022/03/08 01:15:32;;;;;;;5.05;2.95;;;0.00;84.30;;;;;;5015238;28;20458;-44
2022/03/08 01:18:00;;;;;;;6.22;4.28;;;0.00;84.40;;;;;;5050293;28;20037;-44
2022/03/08 01:20:26;;;;;;;5.45;3.85;;;0.00;84.40;;;;;;5053001;28;20147;-45
2022/03/08 01:22:56;;;;;;;7.22;4.00;;;0.00;84.50;;;;;;5053389;28;20132;-43
2022/03/08 01:25:32;;;;;;;7.45;3.88;;;0.00;84.50;;;;;;5036204;28;20043;-44
2022/03/08 01:28:00;;;;;;;6.10;3.80;;;0.00;84.60;;;;;;5053275;28;20396;-45
2022/03/08 01:30:28;;;;;;;5.03;3.50;;;0.00;84.60;;;;;;5052965;28;20021;-44
2022/03/08 01:32:55;;;;;;;4.72;3.00;;;0.00;84.50;;;;;;5053241;28;20032;-44
2022/03/08 01:35:22;;;;;;;7.65;4.00;;;0.00;84.50;;;;;;5035292;28;20502;-44
2022/03/08 01:37:49;;;;;;;8.68;3.83;;;0.00;84.40;;;;;;5034704;28;20037;-43
2022/03/08 01:40:16;;;;;;;5.13;3.40;;;0.00;84.60;;;;;;5052885;28;20033;-44
2022/03/08 01:42:48;;;;;;;6.38;3.42;;;0.00;84.70;;;;;;5052059;28;20050;-43
2022/03/08 01:45:24;;;;;;;5.90;3.92;;;0.00;84.90;;;;;;5034676;28;20107;-47
2022/03/08 01:47:53;;;;;;;5.65;3.60;;;0.10;84.90;;;;;;5052731;28;20029;-45
2022/03/08 01:50:20;;;;;;;5.70;3.80;;;0.10;84.80;;;;;;5035064;28;20052;-45
2022/03/08 01:52:47;;;;;;;8.90;3.88;;;0.10;84.70;;;;;;5052905;28;20403;-44
2022/03/08 01:55:15;;;;;;;7.20;4.25;;;0.10;84.60;;;;;;5018772;28;20079;-46
2022/03/08 01:57:44;;;;;;;7.63;4.22;;;0.10;84.60;;;;;;5018642;28;20048;-43
2022/03/08 02:00:24;;;;;;;5.63;3.70;;;0.10;84.60;;;;;;5017594;28;20040;-45
2022/03/08 02:02:54;;;;;;;7.20;4.68;;;0.10;84.60;;;;;;5050655;28;20032;-43
2022/03/08 02:05:22;;;;;;;7.43;4.28;;;0.10;84.50;;;;;;5034741;28;20033;-44
2022/03/08 02:07:49;;;;;;;8.82;4.53;;;0.10;84.50;;;;;;5051745;28;20025;-47
2022/03/08 02:10:15;;;;;;;7.90;4.32;;;0.10;84.50;;;;;;5034304;28;20056;-46
2022/03/08 02:12:42;;;;;;;5.85;3.67;;;0.10;84.50;;;;;;5034195;28;20041;-43
2022/03/08 02:15:25;;;;;;;8.48;4.45;;;0.00;84.50;;;;;;5051757;28;20104;-45
2022/03/08 02:17:54;;;;;;;7.35;4.40;;;0.00;84.60;;;;;;5032686;28;20037;-46
2022/03/08 02:20:22;;;;;;;9.10;5.97;;;0.00;84.60;;;;;;5050827;28;20045;-46
2022/03/08 02:22:49;;;;;;;13.43;6.00;;;0.00;84.60;;;;;;5049249;28;20045;-43
2022/03/08 02:25:18;;;;;;;10.30;5.03;;;0.00;84.50;;;;;;5018067;28;20025;-46
2022/03/08 02:27:47;;;;;;;7.25;4.65;;;0.00;84.60;;;;;;5034045;28;20048;-45
2022/03/08 02:30:25;;;;;;;9.55;4.55;;;0.00;84.50;;;;;;5052007;28;20083;-44
2022/03/08 02:32:54;;;;;;;9.05;5.25;;;0.00;84.60;;;;;;5034434;28;20033;-46
2022/03/08 02:35:23;;;;;;;9.13;4.82;;;0.00;84.70;;;;;;5051762;28;20032;-46
2022/03/08 02:37:56;;;;;;;6.68;4.22;;;0.00;84.70;;;;;;5051643;28;20037;-48
2022/03/08 02:40:26;;;;;;;11.20;5.30;;;0.00;84.60;;;;;;5051499;28;20029;-45
2022/03/08 02:42:53;;;;;;;8.60;4.72;;;0.00;84.40;;;;;;5034379;28;20418;-44
2022/03/08 02:45:21;;;;;;;8.75;5.32;;;0.00;84.50;;;;;;5051347;28;20029;-44
2022/03/08 02:47:48;;;;;;;9.07;4.47;;;-3276.70;84.50;;;;;;5051677;28;20028;-47
2022/03/08 02:50:17;;;;;;;12.00;4.85;;;-3276.70;84.50;;;;;;5033849;28;20029;-45
2022/03/08 02:52:45;;;;;;;8.40;4.68;;;-3276.70;84.40;;;;;;5051803;28;20017;-45
2022/03/08 02:55:12;;;;;;;8.95;5.07;;;-3276.60;84.40;;;;;;5051500;28;20480;-45
2022/03/08 02:57:41;;;;;;;7.82;5.13;;;-3276.60;84.50;;;;;;5051421;28;20438;-45
2022/03/08 03:00:11;;;;;;;8.13;4.53;;;-3276.60;84.40;;;;;;5034270;28;20128;-44
2022/03/08 03:02:40;;;;;;;10.32;5.15;;;-3276.60;84.40;;;;;;5051148;28;20048;-45
2022/03/08 03:05:09;;;;;;;8.10;5.22;;;-3276.60;84.50;;;;;;5051319;28;20033;-44
2022/03/08 03:07:36;;;;;;;10.77;6.22;;;-3276.60;84.50;;;;;;5033402;28;20040;-43
2022/03/08 03:10:11;;;;;;;8.85;4.80;;;-3276.50;84.60;;;;;;5050098;28;20029;-45
2022/03/08 03:12:38;;;;;;;7.70;5.53;;;-3276.50;84.60;;;;;;5033690;28;20029;-44
2022/03/08 03:15:07;;;;;;;7.90;5.22;;;-3276.50;84.70;;;;;;5033735;28;20025;-45
2022/03/08 03:17:33;;;;;;;8.40;4.80;;;-3276.50;84.60;;;;;;5017486;28;20543;-46
2022/03/08 03:19:59;;;;;;;8.63;4.72;;;-3276.40;84.60;;;;;;5029783;28;20084;-44
2022/03/08 03:22:27;;;;;;;7.80;5.43;;;-3276.40;84.70;;;;;;5030844;28;20047;-44
2022/03/08 03:24:54;;;;;;;6.47;4.60;;;-3276.40;84.80;;;;;;5029122;28;20041;-47
2022/03/08 03:27:22;;;;;;;7.13;4.28;;;-3276.40;84.80;;;;;;5012814;28;20038;-45
2022/03/08 03:29:49;;;;;;;8.73;5.43;;;-3276.40;84.90;;;;;;5030472;28;20022;-47
2022/03/08 03:32:16;;;;;;;10.18;5.18;;;-3276.40;84.80;;;;;;5030084;28;20037;-44
2022/03/08 03:34:43;;;;;;;9.82;6.00;;;-3276.30;84.90;;;;;;5030710;28;20036;-49
2022/03/08 03:37:08;;;;;;;11.02;5.90;;;-3276.30;85.00;;;;;;5030808;28;20478;-46
2022/03/08 03:39:36;;;;;;;9.10;5.07;;;-3276.30;85.10;;;;;;5030554;28;20036;-44
2022/03/08 03:42:07;;;;;;;9.25;5.03;;;-3276.30;85.10;;;;;;5029775;28;20052;-44
2022/03/08 03:44:34;;;;;;;10.10;5.20;;;-3276.30;85.10;;;;;;5030545;28;20040;-44
2022/03/08 03:47:00;;;;;;;11.50;5.55;;;-3276.30;85.10;;;;;;5029546;28;20025;-44
2022/03/08 03:49:28;;;;;;;7.40;5.00;;;-3276.30;85.00;;;;;;5031147;28;20033;-45
2022/03/08 03:51:55;;;;;;;7.75;5.05;;;-3276.30;84.90;;;;;;5029198;28;20029;-46
2022/03/08 03:54:25;;;;;;;8.88;5.18;;;-3276.30;85.00;;;;;;5027744;28;20474;-45
2022/03/08 03:56:52;;;;;;;9.05;5.70;;;-3276.20;85.00;;;;;;5030303;28;20371;-44
2022/03/08 03:59:17;;;;;;;10.50;5.18;;;-3276.20;85.10;;;;;;5030344;28;20022;-46
2022/03/08 04:01:43;;;;;;;7.78;4.65;;;-3276.20;85.20;;;;;;5030161;28;20044;-46
2022/03/08 04:04:10;;;;;;;7.88;5.22;;;-3276.20;85.20;;;;;;5030391;28;20091;-43
2022/03/08 04:06:36;;;;;;;7.25;5.35;;;-3276.20;85.20;;;;;;5029976;28;20397;-46
2022/03/08 04:09:06;;;;;;;8.40;6.32;;;-3276.20;85.30;;;;;;5030371;28;20057;-46
2022/03/08 04:11:33;;;;;;;6.53;4.63;;;-3276.20;85.30;;;;;;5028454;28;20037;-44
2022/03/08 04:14:00;;;;;;;8.25;5.30;;;-3276.20;85.30;;;;;;5012071;28;20033;-44
2022/03/08 04:16:27;;;;;;;7.95;5.72;;;-3276.20;85.20;;;;;;5029840;28;20070;-46
2022/03/08 04:18:54;;;;;;;7.60;5.80;;;-3276.20;85.40;;;;;;5012616;28;20045;-48
2022/03/08 04:21:22;;;;;;;11.45;5.97;;;-3276.20;85.50;;;;;;5045772;28;20409;-44
2022/03/08 04:23:51;;;;;;;8.20;5.80;;;-3276.10;85.50;;;;;;5049946;28;20031;-45
2022/03/08 04:26:17;;;;;;;6.80;5.70;;;-3276.20;85.60;;;;;;5049663;28;20467;-45
2022/03/08 04:28:47;;;;;;;9.70;6.90;;;-3276.10;85.50;;;;;;5049696;28;20113;-47
2022/03/08 04:31:14;;;;;;;10.05;6.20;;;-3276.20;85.50;;;;;;5049658;28;20404;-45
2022/03/08 04:33:41;;;;;;;8.38;6.32;;;-3276.20;85.60;;;;;;5049826;28;20029;-45
2022/03/08 04:36:08;;;;;;;9.65;5.85;;;-3276.10;85.60;;;;;;5031625;28;20119;-43
2022/03/08 04:38:35;;;;;;;8.52;6.70;;;-3276.10;85.60;;;;;;5049636;28;20404;-44
2022/03/08 04:41:05;;;;;;;8.95;6.95;;;-3276.10;85.50;;;;;;5049814;28;20033;-44
2022/03/08 04:43:32;;;;;;;8.18;6.63;;;-3276.10;85.60;;;;;;5032119;28;20061;-45
2022/03/08 04:45:58;;;;;;;9.60;6.80;;;-3276.10;85.60;;;;;;5049412;28;20486;-45
2022/03/08 04:48:23;;;;;;;11.05;7.22;;;-3276.10;85.70;;;;;;5049619;28;20136;-45
2022/03/08 04:50:51;;;;;;;12.27;6.85;;;-3276.10;85.70;;;;;;5032003;28;20035;-46
2022/03/08 04:53:20;;;;;;;9.13;7.25;;;-3276.10;85.70;;;;;;5049153;28;20034;-47
2022/03/08 04:55:47;;;;;;;9.10;7.03;;;-3276.10;85.70;;;;;;5049112;28;20025;-45
2022/03/08 04:58:12;;;;;;;9.77;7.78;;;-3276.00;85.80;;;;;;5049418;28;20346;-49
2022/03/08 05:00:39;;;;;;;10.05;7.68;;;-3276.00;86.00;;;;;;5031835;28;20021;-51
2022/03/08 05:03:05;;;;;;;10.40;8.25;;;-3276.00;86.00;;;;;;5049341;28;20040;-46
2022/03/08 05:05:33;;;;;;;9.85;7.93;;;-3276.10;86.00;;;;;;5032309;28;20041;-43
2022/03/08 05:08:03;;;;;;;9.25;8.07;;;-3276.10;86.00;;;;;;5043079;28;20182;-44
2022/03/08 05:10:29;;;;;;;9.25;8.02;;;-3276.10;86.00;;;;;;5049512;28;20131;-48
2022/03/08 05:12:55;;;;;;;9.80;8.80;;;-3276.10;86.20;;;;;;5048914;28;20032;-45
2022/03/08 05:15:22;;;;;;;11.65;8.68;;;-3276.10;86.10;;;;;;5049587;28;20535;-45
2022/03/08 05:17:49;;;;;;;10.18;8.57;;;-3276.10;86.10;;;;;;5049160;28;21602;-45
2022/03/08 05:20:15;;;;;;;10.13;8.10;;;-3276.10;86.10;;;;;;5026340;28;20068;-46
2022/03/08 05:22:40;;;;;;;14.45;10.13;;;-3276.00;86.10;;;;;;5029251;28;20471;-45
2022/03/08 05:25:10;;;;;;;12.63;8.15;;;-3276.10;86.20;;;;;;5029150;28;20040;-46
2022/03/08 05:27:40;;;;;;;11.02;8.88;;;-3276.00;86.10;;;;;;5027367;28;20080;-48
2022/03/08 05:30:08;;;;;;;11.80;8.55;;;-3276.00;86.20;;;;;;5029145;28;20057;-48
2022/03/08 05:32:34;;;;;;;12.18;8.77;;;-3276.10;86.30;;;;;;5028568;28;20461;-50
2022/03/08 05:35:02;;;;;;;11.20;9.50;;;-3276.10;86.30;;;;;;5028378;28;20093;-46
2022/03/08 05:37:29;;;;;;;13.23;9.35;;;-3276.00;86.30;;;;;;5028444;28;20036;-46
2022/03/08 05:40:06;;;;;;;11.35;9.10;;;-3276.00;86.30;;;;;;5028468;28;20025;-44
2022/03/08 05:42:33;;;;;;;12.05;10.27;;;-3276.00;86.40;;;;;;5025826;28;20454;-48
2022/03/08 05:44:59;;;;;;;11.68;9.85;;;-3276.00;86.50;;;;;;5028863;28;20107;-49
2022/03/08 05:47:26;;;;;;;13.68;9.65;;;-3276.00;86.50;;;;;;5028861;28;20064;-45
2022/03/08 05:49:54;;;;;;;12.90;9.75;;;-3276.00;86.60;;;;;;5028443;28;20054;-48
2022/03/08 05:52:20;;;;;;;12.98;10.48;;;-3276.00;86.50;;;;;;5029034;28;20431;-48
2022/03/08 05:54:48;;;;;;;13.32;10.82;;;-3275.90;86.50;;;;;;5028096;28;20109;-44
2022/03/08 05:57:14;;;;;;;14.75;11.68;;;-3276.00;86.70;;;;;;5030809;28;20025;-49
2022/03/08 05:59:40;;;;;;;12.45;10.32;;;-3276.00;86.80;;;;;;5031703;28;20061;-48
2022/03/08 06:02:07;;;;;;;15.52;10.30;;;-3276.00;86.60;;;;;;5029533;28;20025;-46
2022/03/08 06:04:34;;;;;;;13.50;11.18;;;-3276.00;86.60;;;;;;5031796;28;20381;-44
2022/03/08 06:07:01;;;;;;;13.30;10.80;;;-3276.10;86.70;;;;;;5031789;28;20028;-44
2022/03/08 06:09:29;;;;;;;14.63;10.68;;;-3276.00;86.50;;;;;;5028883;28;20030;-44
2022/03/08 06:11:56;;;;;;;13.85;10.25;;;-3276.00;86.60;;;;;;5029828;28;20071;-43
2022/03/08 06:14:24;;;;;;;12.63;11.27;;;-3276.10;86.60;;;;;;5031919;28;20095;-47
2022/03/08 06:16:52;;;;;;;13.57;10.75;;;-3276.10;86.70;;;;;;5025880;28;20123;-43
2022/03/08 06:19:19;;;;;;;12.18;10.35;;;-3276.10;86.60;;;;;;5031773;28;20033;-43
2022/03/08 06:21:46;;;;;;;14.18;10.45;;;-3276.10;86.60;;;;;;5029933;28;20064;-48
2022/03/08 06:24:13;;;;;;;16.95;10.93;;;-3276.10;86.60;;;;;;5030902;28;20064;-43
2022/03/08 06:26:42;;;;;;;13.13;10.57;;;-3276.10;86.60;;;;;;5031396;28;20435;-44
2022/03/08 06:29:09;;;;;;;12.82;10.43;;;-3276.20;86.60;;;;;;5029916;28;20060;-45
2022/03/08 06:31:37;;;;;;;12.57;10.30;;;-3276.20;86.70;;;;;;5030064;28;20026;-45
2022/03/08 06:34:06;;;;;;;14.02;11.32;;;-3276.20;86.80;;;;;;5030931;28;20033;-44
2022/03/08 06:36:34;;;;;;;16.42;11.68;;;-3276.30;86.90;;;;;;5031020;28;20029;-46
2022/03/08 06:39:02;;;;;;;14.70;10.77;;;-3276.30;86.80;;;;;;5029304;28;20032;-46
2022/03/08 06:41:28;;;;;;;14.35;11.60;;;-3276.30;86.90;;;;;;5031166;28;20022;-48
2022/03/08 06:43:55;;;;;;;14.73;11.85;;;-3276.30;86.90;;;;;;5031208;28;20033;-43
2022/03/08 06:46:24;;;;;;;14.50;11.40;;;-3276.40;86.90;;;;;;5030954;28;20037;-45
2022/03/08 06:48:51;;;;;;;14.27;11.90;;;-3276.40;86.90;;;;;;5030271;28;20021;-49
2022/03/08 06:51:18;;;;;;;14.27;11.20;;;-3276.40;86.80;;;;;;5029671;28;20082;-47
2022/03/08 06:53:45;;;;;;;14.82;11.10;;;-3276.50;86.80;;;;;;5030165;28;20025;-44
2022/03/08 06:56:11;;;;;;;12.15;10.85;;;-3276.60;86.80;;;;;;5030341;28;20049;-45
2022/03/08 06:58:38;;;;;;;14.20;11.32;;;-3276.60;86.80;;;;;;5031175;28;20060;-45
2022/03/08 07:01:05;;;;;;;16.90;11.75;;;-3276.60;86.70;;;;;;5030216;28;20029;-45
2022/03/08 07:03:32;;;;;;;15.05;12.35;;;-3276.70;86.70;;;;;;5029518;28;20036;-48
2022/03/08 07:05:59;;;;;;;13.63;10.45;;;-3276.70;86.60;;;;;;5029810;28;20046;-46
2022/03/08 07:08:25;;;;;;;17.38;11.55;;;0.00;86.50;;;;;;5029979;28;20033;-48
2022/03/08 07:10:52;;;;;;;15.68;12.57;;;0.00;86.70;;;;;;5030185;28;20036;-44
2022/03/08 07:13:19;;;;;;;13.63;11.45;;;0.00;86.70;;;;;;5028483;28;20017;-44
2022/03/08 07:15:45;;;;;;;15.52;11.25;;;0.10;86.80;;;;;;5015076;28;20018;-47
2022/03/08 07:18:12;;;;;;;16.63;11.32;;;0.10;86.80;;;;;;5030616;28;20033;-44
2022/03/08 07:20:38;;;;;;;13.80;11.07;;;0.20;86.80;;;;;;5030325;28;20044;-45
2022/03/08 07:23:04;;;;;;;15.48;11.20;;;0.30;87.00;;;;;;5030495;28;20029;-44
2022/03/08 07:25:34;;;;;;;14.40;10.32;;;0.40;86.90;;;;;;5015746;28;20057;-44
2022/03/08 07:28:02;;;;;;;13.82;10.25;;;0.50;87.00;;;;;;5029036;28;20116;-44
2022/03/08 07:30:32;;;;;;;13.70;10.32;;;0.70;87.00;;;;;;5030686;28;20051;-43
2022/03/08 07:32:59;;;;;;;14.27;9.93;;;0.90;86.90;;;;;;5029582;28;20038;-46
2022/03/08 07:35:26;;;;;;;13.18;10.23;;;1.00;86.70;;;;;;5029952;28;20021;-43
2022/03/08 07:37:53;;;;;;;11.95;9.23;;;1.30;86.30;;;;;;5012942;28;20033;-44
2022/03/08 07:40:19;;;;;;;13.98;9.45;;;1.40;86.00;;;;;;5030069;28;20045;-43
2022/03/08 07:42:46;;;;;;;14.25;9.82;;;1.70;85.60;;;;;;5001326;28;20038;-43
2022/03/08 07:45:11;;;;;;;13.63;8.95;;;1.90;85.10;;;;;;5008784;28;20111;-43
2022/03/08 07:47:38;;;;;;;12.65;8.45;;;2.00;84.60;;;;;;5011772;28;20072;-45
2022/03/08 07:50:07;;;;;;;12.07;8.05;;;2.30;84.00;;;;;;5018937;28;20072;-47
2022/03/08 07:52:34;;;;;;;11.57;6.95;;;2.50;83.00;;;;;;5025648;28;20133;-44
2022/03/08 07:55:03;;;;;;;11.15;7.82;;;2.90;82.80;;;;;;5022509;28;20025;-44
2022/03/08 07:57:38;;;;;;;11.82;7.10;;;3.20;82.00;;;;;;5018000;28;20034;-43
2022/03/08 08:00:06;;;;;;;11.68;7.70;;;3.70;80.60;;;;;;5017400;28;20045;-45
2022/03/08 08:02:37;;;;;;;10.30;7.43;;;4.10;79.40;;;;;;5011005;28;20445;-43
2022/03/08 08:05:04;;;;;;;9.48;6.75;;;4.50;78.30;;;;;;5005491;28;20303;-44
2022/03/08 08:07:30;;;;;;;13.10;7.40;;;4.90;76.00;;;;;;5010405;28;20021;-43
2022/03/08 08:09:58;;;;;;;11.40;7.40;;;5.30;75.40;;;;;;4999934;28;20037;-42
2022/03/08 08:12:25;;;;;;;11.43;6.53;;;5.60;74.30;;;;;;5026584;28;20021;-46
2022/03/08 08:14:52;;;;;;;11.60;7.10;;;5.90;73.80;;;;;;5026250;28;20051;-44
2022/03/08 08:17:19;;;;;;;10.93;6.95;;;6.10;72.20;;;;;;5011113;28;20366;-46
2022/03/08 08:19:45;;;;;;;8.55;6.68;;;6.20;71.60;;;;;;5029247;28;20038;-43
2022/03/08 08:22:12;;;;;;;10.32;7.07;;;6.50;71.00;;;;;;5049019;28;20047;-45
2022/03/08 08:24:39;;;;;;;12.07;7.93;;;6.70;69.40;;;;;;5047956;28;20115;-49
2022/03/08 08:27:06;;;;;;;9.68;6.60;;;6.90;69.60;;;;;;5014719;28;20029;-43
2022/03/08 08:29:35;;;;;;;16.20;7.63;;;7.20;70.10;;;;;;5048410;28;20043;-42
2022/03/08 08:32:04;;;;;;;11.93;7.07;;;7.40;69.70;;;;;;5031790;28;20021;-46
2022/03/08 08:34:32;;;;;;;12.98;8.48;;;7.70;66.90;;;;;;5038165;28;20129;-45
2022/03/08 08:37:00;;;;;;;10.85;6.70;;;7.70;64.40;;;;;;5048540;28;20447;-43
2022/03/08 08:39:28;;;;;;;12.88;7.30;;;7.90;64.30;;;;;;5049126;28;20048;-45
2022/03/08 08:41:56;;;;;;;10.25;6.72;;;8.20;65.00;;;;;;5024805;28;20365;-45
2022/03/08 08:44:29;;;;;;;8.02;6.22;;;8.20;64.10;;;;;;5047726;28;20043;-44
2022/03/08 08:46:56;;;;;;;9.60;6.32;;;8.40;64.80;;;;;;5046216;28;20619;-44
2022/03/08 08:49:25;;;;;;;9.25;7.10;;;8.60;63.80;;;;;;5027161;28;20013;-46
2022/03/08 08:51:52;;;;;;;10.07;6.75;;;8.80;63.90;;;;;;5047034;28;20052;-43
2022/03/08 08:54:18;;;;;;;11.23;6.72;;;8.90;60.20;;;;;;5030287;28;20163;-44
2022/03/08 08:56:45;;;;;;;13.52;7.93;;;8.90;60.40;;;;;;5030194;28;20347;-43
2022/03/08 08:59:12;;;;;;;9.93;7.38;;;8.90;60.20;;;;;;5048433;28;20033;-42
2022/03/08 09:01:38;;;;;;;11.25;7.70;;;9.10;61.10;;;;;;5030022;28;20033;-43
2022/03/08 09:04:07;;;;;;;9.63;6.70;;;9.30;59.00;;;;;;5029520;28;20051;-45
2022/03/08 09:06:35;;;;;;;10.68;6.47;;;9.30;58.70;;;;;;5029840;28;20029;-44
2022/03/08 09:09:02;;;;;;;9.77;5.95;;;9.40;57.40;;;;;;5048052;28;20504;-43
2022/03/08 09:11:29;;;;;;;8.45;6.57;;;9.40;58.00;;;;;;5013539;28;20033;-45
2022/03/08 09:13:58;;;;;;;10.85;6.70;;;9.50;57.80;;;;;;5046705;28;20048;-43
2022/03/08 09:16:29;;;;;;;10.00;6.72;;;9.60;57.10;;;;;;5034229;28;20086;-47
2022/03/08 09:18:56;;;;;;;10.93;6.28;;;9.50;55.90;;;;;;5046314;28;20474;-44
2022/03/08 09:21:23;;;;;;;9.48;6.53;;;9.40;56.80;;;;;;5047670;28;20354;-44
2022/03/08 09:23:50;;;;;;;10.25;7.00;;;9.60;56.00;;;;;;5012908;28;20040;-45
2022/03/08 09:26:17;;;;;;;10.52;5.63;;;9.70;55.50;;;;;;5033622;28;20029;-44
2022/03/08 09:28:43;;;;;;;8.65;5.68;;;9.90;54.80;;;;;;4997397;28;20030;-45
2022/03/08 09:31:12;;;;;;;11.43;6.00;;;9.90;54.50;;;;;;5047294;28;20036;-44
2022/03/08 09:33:42;;;;;;;9.13;6.38;;;10.20;53.70;;;;;;5051130;28;20071;-44
2022/03/08 09:36:12;;;;;;;11.30;6.20;;;10.30;52.70;;;;;;5046786;28;20354;-45
2022/03/08 09:38:42;;;;;;;11.40;6.57;;;10.30;51.80;;;;;;5050985;28;20029;-48
2022/03/08 09:41:08;;;;;;;8.52;6.65;;;10.50;54.40;;;;;;5050532;28;20076;-45
2022/03/08 09:43:37;;;;;;;10.00;6.38;;;10.60;51.00;;;;;;5051381;28;20056;-44
2022/03/08 09:46:04;;;;;;;8.52;5.57;;;10.50;51.10;;;;;;5018122;28;20041;-44
2022/03/08 09:48:30;;;;;;;8.35;5.40;;;10.60;52.40;;;;;;5014177;28;20102;-43
2022/03/08 09:51:05;;;;;;;6.55;5.20;;;10.70;51.20;;;;;;5029034;28;20360;-46
2022/03/08 09:53:36;;;;;;;8.20;5.70;;;10.70;51.40;;;;;;5050554;28;20469;-44
2022/03/08 09:56:04;;;;;;;6.78;4.80;;;10.80;51.50;;;;;;5050838;28;20131;-43
2022/03/08 09:58:32;;;;;;;6.35;4.88;;;10.60;48.70;;;;;;5050349;28;20024;-45
2022/03/08 10:01:01;;;;;;;7.28;5.25;;;10.50;48.40;;;;;;5030408;28;20112;-43
2022/03/08 10:03:53;;;;;;;7.75;5.43;;;10.60;49.00;;;;;;5037624;28;20027;-43
2022/03/08 10:06:20;;;;;;;7.60;5.20;;;10.70;49.80;;;;;;5022692;28;20474;-42
2022/03/08 10:08:48;;;;;;;7.22;5.20;;;10.70;49.40;;;;;;5029004;28;20037;-44
2022/03/08 10:11:17;;;;;;;7.13;4.80;;;10.60;48.40;;;;;;5049429;28;20090;-43
2022/03/08 10:13:50;;;;;;;6.43;4.55;;;10.50;47.20;;;;;;5031935;28;20076;-43
2022/03/08 10:16:47;;;;;;;9.85;5.55;;;10.40;47.20;;;;;;5050787;28;20040;-45
2022/03/08 10:19:14;;;;;;;7.18;5.55;;;10.40;47.30;;;;;;5032067;28;20036;-44
2022/03/08 10:21:52;;;;;;;7.82;5.30;;;10.60;47.30;;;;;;5030224;28;20357;-43
2022/03/08 10:24:26;;;;;;;7.70;5.28;;;10.70;47.70;;;;;;5017230;28;20091;-42
2022/03/08 10:27:23;;;;;;;8.75;4.95;;;10.70;47.30;;;;;;5006292;28;20053;-43
2022/03/08 10:30:01;;;;;;;8.00;4.97;;;10.60;47.40;;;;;;5012293;28;20017;-46
2022/03/08 10:32:40;;;;;;;7.13;4.97;;;10.70;46.60;;;;;;5030318;28;20029;-43
2022/03/08 10:35:08;;;;;;;8.95;4.45;;;10.90;46.90;;;;;;5012459;28;20049;-45
2022/03/08 10:37:38;;;;;;;6.82;4.43;;;10.90;46.00;;;;;;4999191;28;20084;-42
2022/03/08 10:40:07;;;;;;;8.57;3.80;;;10.90;45.70;;;;;;5012293;28;20044;-43
2022/03/08 10:42:38;;;;;;;7.45;4.03;;;10.60;46.50;;;;;;5026613;28;20032;-46
2022/03/08 10:45:16;;;;;;;6.80;4.80;;;10.60;45.40;;;;;;4969286;28;20040;-43
2022/03/08 10:47:53;;;;;;;7.55;4.57;;;10.50;46.70;;;;;;4988871;28;20021;-42
2022/03/08 10:50:23;;;;;;;5.45;4.50;;;10.50;47.90;;;;;;5009634;28;20026;-42
2022/03/08 10:52:52;;;;;;;;;;;10.60;48.50;;;;;;5013319;28;20114;-42
2022/03/08 10:55:25;;;;;;;6.63;4.05;;;10.80;46.70;;;;;;4989826;28;19917;-43
2022/03/08 10:58:14;;;;;;;5.53;4.03;;;10.90;47.20;;;;;;5021640;28;20044;-45
2022/03/08 11:00:41;;;;;;;5.57;4.07;;;10.80;48.10;;;;;;5009813;28;20048;-44
2022/03/08 11:03:19;;;;;;;6.72;4.00;;;10.80;48.90;;;;;;5029583;28;20029;-44
2022/03/08 11:05:50;;;;;;;6.93;4.38;;;10.70;47.40;;;;;;5007470;28;20030;-44
2022/03/08 11:08:17;;;;;;;6.78;4.30;;;10.60;47.30;;;;;;5006915;28;20448;-43
2022/03/08 11:10:44;;;;;;;6.68;4.15;;;10.70;47.80;;;;;;5000535;28;20057;-43
2022/03/08 11:13:19;;;;;;;7.53;4.45;;;10.60;48.20;;;;;;5025216;28;20115;-43
2022/03/08 11:15:46;;;;;;;6.57;3.88;;;10.80;47.50;;;;;;5011482;28;20445;-42
2022/03/08 11:18:20;;;;;;;7.13;3.92;;;10.90;47.00;;;;;;5021621;28;20116;-44
2022/03/08 11:20:47;;;;;;;7.90;4.38;;;10.80;47.50;;;;;;5026756;28;20046;-44
2022/03/08 11:23:14;;;;;;;6.60;3.72;;;10.90;48.20;;;;;;5029170;28;20056;-42
2022/03/08 11:25:58;;;;;;;6.82;3.85;;;10.90;47.20;;;;;;5008634;28;20122;-44
2022/03/08 11:28:37;;;;;;;7.05;4.25;;;10.90;48.80;;;;;;5026499;28;20660;-46
2022/03/08 11:31:03;;;;;;;6.90;4.80;;;10.80;47.60;;;;;;5009827;28;20401;-43
2022/03/08 11:34:06;;;;;;;6.93;4.57;;;10.70;48.20;;;;;;5028844;28;20100;-46
2022/03/08 11:36:38;;;;;;;7.07;4.93;;;10.90;46.90;;;;;;5020148;28;20505;-43
2022/03/08 11:39:40;;;;;;;6.63;4.47;;;10.90;46.60;;;;;;4986721;28;20053;-43
2022/03/08 11:42:26;;;;;;;6.75;4.65;;;10.80;48.10;;;;;;5024913;28;20029;-43
2022/03/08 11:45:11;;;;;;;8.95;4.43;;;10.60;47.30;;;;;;4997855;28;20050;-46
2022/03/08 11:48:01;;;;;;;6.35;3.83;;;10.70;48.10;;;;;;4990736;28;20026;-45
2022/03/08 11:50:37;;;;;;;9.23;4.75;;;10.70;48.80;;;;;;5024382;28;20068;-44
2022/03/08 11:53:17;;;;;;;5.68;4.20;;;10.90;48.00;;;;;;5011622;28;20029;-43
2022/03/08 11:55:43;;;;;;;6.82;4.13;;;10.90;45.80;;;;;;5012041;28;20037;-42
2022/03/08 11:58:47;;;;;;;9.25;4.65;;;10.90;47.40;;;;;;5029271;28;20036;-45
2022/03/08 12:01:28;;;;;;;8.48;4.72;;;10.70;46.90;;;;;;5029052;28;20072;-46
2022/03/08 12:03:57;;;;;;;6.05;4.32;;;10.70;47.60;;;;;;4990414;28;20027;-45
2022/03/08 12:06:36;;;;;;;6.38;4.20;;;10.70;46.10;;;;;;4973390;28;20477;-43
2022/03/08 12:09:18;;;;;;;5.30;3.63;;;10.60;47.70;;;;;;5025664;28;20418;-42
2022/03/08 12:12:03;;;;;;;5.78;3.58;;;10.70;45.80;;;;;;5010919;28;20044;-46
2022/03/08 12:14:43;;;;;;;6.88;4.97;;;10.70;45.50;;;;;;5028858;28;20029;-43
2022/03/08 12:17:27;;;;;;;5.22;3.88;;;10.60;47.70;;;;;;5012363;28;20037;-44
2022/03/08 12:19:59;;;;;;;11.27;8.75;;;10.70;46.80;;;;;;5026435;28;20835;-44
2022/03/08 12:22:33;;;;;;;7.45;4.43;;;10.80;48.30;;;;;;4994590;28;20107;-46
2022/03/08 12:25:15;;;;;;;5.78;3.83;;;10.90;46.80;;;;;;5010959;28;20033;-50
2022/03/08 12:27:53;;;;;;;6.15;3.83;;;10.70;45.80;;;;;;5029055;28;20026;-43
2022/03/08 12:30:40;;;;;;;7.68;4.00;;;10.70;47.00;;;;;;5028639;28;20470;-44
2022/03/08 12:33:08;;;;;;;5.00;3.38;;;10.60;47.60;;;;;;5011609;28;20025;-44
2022/03/08 12:35:36;;;;;;;5.63;3.70;;;10.60;47.50;;;;;;5029348;28;20320;-44
2022/03/08 12:38:03;;;;;;;5.80;3.67;;;10.50;45.80;;;;;;5028357;28;20041;-45
2022/03/08 12:40:50;;;;;;;6.55;3.88;;;10.50;46.50;;;;;;4993261;28;20037;-47
2022/03/08 12:43:20;;;;;;;9.30;4.90;;;10.50;46.30;;;;;;4992917;28;20351;-44
2022/03/08 12:45:50;;;;;;;5.10;2.95;;;10.40;46.10;;;;;;4983301;28;20055;-45
2022/03/08 12:48:20;;;;;;;4.90;2.97;;;10.30;47.40;;;;;;5009659;28;20033;-45